sensor_id;sensor_type;location;lat;lon;timestamp;temperature;humidity
25360;DHT22;13311;51.386;0.016;2023-11-19T00:03:45;15.00;99.80
25360;DHT22;13311;51.386;0.016;2023-11-19T00:08:46;15.10;99.70
25360;DHT22;13311;51.386;0.016;2023-11-19T00:13:47;15.00;99.50
25360;DHT22;13311;51.386;0.016;2023-11-19T00:18:48;14.90;99.70
25360;DHT22;13311;51.386;0.016;2023-11-19T00:23:50;14.90;99.90
25360;DHT22;13311;51.386;0.016;2023-11-19T00:28:52;15.00;99.50
25360;DHT22;13311;51.386;0.016;2023-11-19T00:33:53;14.90;99.40
25360;DHT22;13311;51.386;0.016;2023-11-19T00:38:54;14.80;99.70
25360;DHT22;13311;51.386;0.016;2023-11-19T00:43:55;14.90;99.90
25360;DHT22;13311;51.386;0.016;2023-11-19T00:48:56;14.90;99.70
25360;DHT22;13311;51.386;0.016;2023-11-19T00:54:01;14.80;99.50
25360;DHT22;13311;51.386;0.016;2023-11-19T00:59:03;14.80;99.60
25360;DHT22;13311;51.386;0.016;2023-11-19T01:04:04;14.70;99.80
25360;DHT22;13311;51.386;0.016;2023-11-19T01:09:05;14.70;99.70
25360;DHT22;13311;51.386;0.016;2023-11-19T01:14:06;14.70;99.90
25360;DHT22;13311;51.386;0.016;2023-11-19T01:19:07;14.60;99.90
25360;DHT22;13311;51.386;0.016;2023-11-19T01:24:08;14.60;99.90
25360;DHT22;13311;51.386;0.016;2023-11-19T01:29:13;14.50;99.90
25360;DHT22;13311;51.386;0.016;2023-11-19T01:34:15;14.50;99.90
25360;DHT22;13311;51.386;0.016;2023-11-19T01:39:17;14.30;99.90
25360;DHT22;13311;51.386;0.016;2023-11-19T01:44:21;14.30;99.90
25360;DHT22;13311;51.386;0.016;2023-11-19T01:49:22;14.30;99.90
25360;DHT22;13311;51.386;0.016;2023-11-19T01:54:22;14.30;99.90
25360;DHT22;13311;51.386;0.016;2023-11-19T01:59:24;14.40;99.80
25360;DHT22;13311;51.386;0.016;2023-11-19T02:04:27;14.20;99.90
25360;DHT22;13311;51.386;0.016;2023-11-19T02:09:28;14.40;99.90
25360;DHT22;13311;51.386;0.016;2023-11-19T02:14:30;14.30;99.90
25360;DHT22;13311;51.386;0.016;2023-11-19T02:19:31;14.20;99.90
25360;DHT22;13311;51.386;0.016;2023-11-19T02:24:32;14.30;99.90
25360;DHT22;13311;51.386;0.016;2023-11-19T02:29:37;14.40;99.60
25360;DHT22;13311;51.386;0.016;2023-11-19T02:34:38;14.40;99.50
25360;DHT22;13311;51.386;0.016;2023-11-19T02:39:38;14.30;99.70
25360;DHT22;13311;51.386;0.016;2023-11-19T02:44:39;14.30;99.70
25360;DHT22;13311;51.386;0.016;2023-11-19T02:49:48;14.30;99.60
25360;DHT22;13311;51.386;0.016;2023-11-19T02:54:59;14.30;99.50
25360;DHT22;13311;51.386;0.016;2023-11-19T03:00:03;14.30;99.50
25360;DHT22;13311;51.386;0.016;2023-11-19T03:05:16;14.30;99.20
25360;DHT22;13311;51.386;0.016;2023-11-19T03:10:17;14.30;99.00
25360;DHT22;13311;51.386;0.016;2023-11-19T03:15:19;14.30;99.00
25360;DHT22;13311;51.386;0.016;2023-11-19T03:20:21;14.20;99.10
25360;DHT22;13311;51.386;0.016;2023-11-19T03:25:27;14.20;98.80
25360;DHT22;13311;51.386;0.016;2023-11-19T03:30:33;14.20;99.20
25360;DHT22;13311;51.386;0.016;2023-11-19T03:35:34;14.20;99.10
25360;DHT22;13311;51.386;0.016;2023-11-19T03:40:35;14.10;99.10
25360;DHT22;13311;51.386;0.016;2023-11-19T03:45:39;14.10;99.30
25360;DHT22;13311;51.386;0.016;2023-11-19T03:50:49;14.10;99.30
25360;DHT22;13311;51.386;0.016;2023-11-19T03:55:50;14.10;99.60
25360;DHT22;13311;51.386;0.016;2023-11-19T04:00:50;14.10;99.60
25360;DHT22;13311;51.386;0.016;2023-11-19T04:05:52;14.20;99.20
25360;DHT22;13311;51.386;0.016;2023-11-19T04:10:53;14.30;99.20
25360;DHT22;13311;51.386;0.016;2023-11-19T04:15:55;14.20;99.00
25360;DHT22;13311;51.386;0.016;2023-11-19T04:20:59;14.20;99.10
25360;DHT22;13311;51.386;0.016;2023-11-19T04:26:02;14.30;99.30
25360;DHT22;13311;51.386;0.016;2023-11-19T04:31:04;14.30;99.20
25360;DHT22;13311;51.386;0.016;2023-11-19T04:36:06;14.30;99.10
25360;DHT22;13311;51.386;0.016;2023-11-19T04:41:07;14.30;99.40
25360;DHT22;13311;51.386;0.016;2023-11-19T04:46:09;14.30;99.00
25360;DHT22;13311;51.386;0.016;2023-11-19T04:51:10;14.30;99.20
25360;DHT22;13311;51.386;0.016;2023-11-19T04:56:11;14.30;98.90
25360;DHT22;13311;51.386;0.016;2023-11-19T05:01:14;14.40;98.80
25360;DHT22;13311;51.386;0.016;2023-11-19T05:06:18;14.40;98.50
25360;DHT22;13311;51.386;0.016;2023-11-19T05:11:18;14.30;98.70
25360;DHT22;13311;51.386;0.016;2023-11-19T05:16:20;14.30;98.60
25360;DHT22;13311;51.386;0.016;2023-11-19T05:21:21;14.40;98.50
25360;DHT22;13311;51.386;0.016;2023-11-19T05:26:23;14.40;98.70
25360;DHT22;13311;51.386;0.016;2023-11-19T05:31:24;14.40;98.40
25360;DHT22;13311;51.386;0.016;2023-11-19T05:36:25;14.40;98.50
25360;DHT22;13311;51.386;0.016;2023-11-19T05:41:25;14.40;98.40
25360;DHT22;13311;51.386;0.016;2023-11-19T05:46:29;14.40;98.50
25360;DHT22;13311;51.386;0.016;2023-11-19T05:51:29;14.30;98.30
25360;DHT22;13311;51.386;0.016;2023-11-19T05:56:30;14.30;98.40
25360;DHT22;13311;51.386;0.016;2023-11-19T06:01:35;14.30;98.60
25360;DHT22;13311;51.386;0.016;2023-11-19T06:06:37;14.30;98.60
25360;DHT22;13311;51.386;0.016;2023-11-19T06:11:38;14.30;98.60
25360;DHT22;13311;51.386;0.016;2023-11-19T06:16:44;14.40;98.40
25360;DHT22;13311;51.386;0.016;2023-11-19T06:21:45;14.30;98.50
25360;DHT22;13311;51.386;0.016;2023-11-19T06:26:46;14.40;98.60
25360;DHT22;13311;51.386;0.016;2023-11-19T06:31:50;14.50;98.30
25360;DHT22;13311;51.386;0.016;2023-11-19T06:36:56;14.50;98.10
25360;DHT22;13311;51.386;0.016;2023-11-19T06:42:12;14.40;97.90
25360;DHT22;13311;51.386;0.016;2023-11-19T06:47:14;14.40;98.00
25360;DHT22;13311;51.386;0.016;2023-11-19T06:52:16;14.50;97.70
25360;DHT22;13311;51.386;0.016;2023-11-19T06:57:24;14.50;97.70
25360;DHT22;13311;51.386;0.016;2023-11-19T07:02:25;14.40;97.70
25360;DHT22;13311;51.386;0.016;2023-11-19T07:07:26;14.40;97.80
25360;DHT22;13311;51.386;0.016;2023-11-19T07:12:27;14.30;98.40
25360;DHT22;13311;51.386;0.016;2023-11-19T07:17:28;14.30;97.90
25360;DHT22;13311;51.386;0.016;2023-11-19T07:22:30;14.40;97.90
25360;DHT22;13311;51.386;0.016;2023-11-19T07:27:34;14.40;97.60
25360;DHT22;13311;51.386;0.016;2023-11-19T07:32:35;14.30;97.30
25360;DHT22;13311;51.386;0.016;2023-11-19T07:37:36;14.20;97.40
25360;DHT22;13311;51.386;0.016;2023-11-19T07:42:38;14.20;96.90
25360;DHT22;13311;51.386;0.016;2023-11-19T07:47:38;14.30;97.70
25360;DHT22;13311;51.386;0.016;2023-11-19T07:52:39;14.30;97.30
25360;DHT22;13311;51.386;0.016;2023-11-19T07:57:41;14.30;96.30
25360;DHT22;13311;51.386;0.016;2023-11-19T08:02:47;14.20;96.60
25360;DHT22;13311;51.386;0.016;2023-11-19T08:07:51;14.30;97.30
25360;DHT22;13311;51.386;0.016;2023-11-19T08:12:56;14.30;97.30
25360;DHT22;13311;51.386;0.016;2023-11-19T08:17:58;14.40;97.20
25360;DHT22;13311;51.386;0.016;2023-11-19T08:22:59;14.60;97.10
25360;DHT22;13311;51.386;0.016;2023-11-19T08:28:02;14.50;96.80
25360;DHT22;13311;51.386;0.016;2023-11-19T08:33:03;14.50;96.90
25360;DHT22;13311;51.386;0.016;2023-11-19T08:38:06;14.50;97.20
25360;DHT22;13311;51.386;0.016;2023-11-19T08:43:10;14.60;97.20
25360;DHT22;13311;51.386;0.016;2023-11-19T08:48:11;14.70;97.40
25360;DHT22;13311;51.386;0.016;2023-11-19T08:53:12;14.70;97.50
25360;DHT22;13311;51.386;0.016;2023-11-19T08:58:12;14.90;97.30
25360;DHT22;13311;51.386;0.016;2023-11-19T09:03:13;14.80;97.50
25360;DHT22;13311;51.386;0.016;2023-11-19T09:08:14;15.10;97.50
25360;DHT22;13311;51.386;0.016;2023-11-19T09:13:15;15.30;97.30
25360;DHT22;13311;51.386;0.016;2023-11-19T09:18:16;15.40;96.90
25360;DHT22;13311;51.386;0.016;2023-11-19T09:23:17;15.60;96.40
25360;DHT22;13311;51.386;0.016;2023-11-19T09:28:17;15.50;96.60
25360;DHT22;13311;51.386;0.016;2023-11-19T09:33:18;15.50;96.70
25360;DHT22;13311;51.386;0.016;2023-11-19T09:38:19;15.70;96.60
25360;DHT22;13311;51.386;0.016;2023-11-19T09:43:19;15.80;96.50
25360;DHT22;13311;51.386;0.016;2023-11-19T09:48:20;16.00;96.40
25360;DHT22;13311;51.386;0.016;2023-11-19T09:53:22;16.20;96.20
25360;DHT22;13311;51.386;0.016;2023-11-19T09:58:22;16.10;95.70
25360;DHT22;13311;51.386;0.016;2023-11-19T10:03:23;16.10;96.20
25360;DHT22;13311;51.386;0.016;2023-11-19T10:08:25;16.00;96.20
25360;DHT22;13311;51.386;0.016;2023-11-19T10:13:29;16.10;96.20
25360;DHT22;13311;51.386;0.016;2023-11-19T10:18:30;16.20;95.60
25360;DHT22;13311;51.386;0.016;2023-11-19T10:23:31;16.50;96.20
25360;DHT22;13311;51.386;0.016;2023-11-19T10:28:40;16.70;95.30
25360;DHT22;13311;51.386;0.016;2023-11-19T10:33:46;16.90;94.80
25360;DHT22;13311;51.386;0.016;2023-11-19T10:38:55;17.10;94.60
25360;DHT22;13311;51.386;0.016;2023-11-19T10:43:58;17.20;94.10
25360;DHT22;13311;51.386;0.016;2023-11-19T10:48:59;17.30;93.90
25360;DHT22;13311;51.386;0.016;2023-11-19T10:54:04;17.30;94.00
25360;DHT22;13311;51.386;0.016;2023-11-19T10:59:06;17.30;94.90
25360;DHT22;13311;51.386;0.016;2023-11-19T11:04:14;17.20;94.60
25360;DHT22;13311;51.386;0.016;2023-11-19T11:09:17;17.20;93.50
25360;DHT22;13311;51.386;0.016;2023-11-19T11:14:20;17.40;94.70
25360;DHT22;13311;51.386;0.016;2023-11-19T11:19:22;17.40;95.10
25360;DHT22;13311;51.386;0.016;2023-11-19T11:30:20;17.20;94.00
25360;DHT22;13311;51.386;0.016;2023-11-19T11:35:49;16.90;93.60
25360;DHT22;13311;51.386;0.016;2023-11-19T11:57:08;16.70;94.30
25360;DHT22;13311;51.386;0.016;2023-11-19T12:02:17;16.80;94.90
25360;DHT22;13311;51.386;0.016;2023-11-19T12:07:21;16.70;94.60
25360;DHT22;13311;51.386;0.016;2023-11-19T12:12:27;16.60;94.80
25360;DHT22;13311;51.386;0.016;2023-11-19T12:17:42;16.60;95.90
25360;DHT22;13311;51.386;0.016;2023-11-19T12:22:49;16.60;95.10
25360;DHT22;13311;51.386;0.016;2023-11-19T12:27:52;16.50;95.90
25360;DHT22;13311;51.386;0.016;2023-11-19T12:32:54;16.60;95.80
25360;DHT22;13311;51.386;0.016;2023-11-19T12:37:55;16.60;95.70
25360;DHT22;13311;51.386;0.016;2023-11-19T12:42:56;16.60;95.70
25360;DHT22;13311;51.386;0.016;2023-11-19T12:48:07;16.70;95.00
25360;DHT22;13311;51.386;0.016;2023-11-19T12:53:09;16.80;94.80
25360;DHT22;13311;51.386;0.016;2023-11-19T12:58:10;16.70;95.10
25360;DHT22;13311;51.386;0.016;2023-11-19T13:03:11;16.70;95.10
25360;DHT22;13311;51.386;0.016;2023-11-19T13:08:12;16.70;95.80
25360;DHT22;13311;51.386;0.016;2023-11-19T13:13:16;16.80;96.00
25360;DHT22;13311;51.386;0.016;2023-11-19T13:18:17;16.70;96.00
25360;DHT22;13311;51.386;0.016;2023-11-19T13:23:22;16.80;95.90
25360;DHT22;13311;51.386;0.016;2023-11-19T13:28:22;16.90;96.20
25360;DHT22;13311;51.386;0.016;2023-11-19T13:33:23;16.80;95.30
25360;DHT22;13311;51.386;0.016;2023-11-19T13:38:24;16.90;95.80
25360;DHT22;13311;51.386;0.016;2023-11-19T13:43:24;16.90;95.50
25360;DHT22;13311;51.386;0.016;2023-11-19T13:48:25;16.80;94.70
25360;DHT22;13311;51.386;0.016;2023-11-19T13:53:27;16.80;95.40
25360;DHT22;13311;51.386;0.016;2023-11-19T13:58:28;16.70;95.50
25360;DHT22;13311;51.386;0.016;2023-11-19T14:03:30;16.70;95.60
25360;DHT22;13311;51.386;0.016;2023-11-19T14:08:31;16.70;96.30
25360;DHT22;13311;51.386;0.016;2023-11-19T14:13:32;16.80;96.10
25360;DHT22;13311;51.386;0.016;2023-11-19T14:18:33;16.70;95.60
25360;DHT22;13311;51.386;0.016;2023-11-19T14:23:38;16.80;96.10
25360;DHT22;13311;51.386;0.016;2023-11-19T14:28:40;16.70;95.90
25360;DHT22;13311;51.386;0.016;2023-11-19T14:33:41;16.60;95.90
25360;DHT22;13311;51.386;0.016;2023-11-19T14:38:41;16.70;95.90
25360;DHT22;13311;51.386;0.016;2023-11-19T14:43:42;16.70;96.10
25360;DHT22;13311;51.386;0.016;2023-11-19T14:48:43;16.70;95.70
25360;DHT22;13311;51.386;0.016;2023-11-19T14:53:44;16.80;96.00
25360;DHT22;13311;51.386;0.016;2023-11-19T14:58:47;16.70;95.50
25360;DHT22;13311;51.386;0.016;2023-11-19T15:03:51;16.60;96.10
25360;DHT22;13311;51.386;0.016;2023-11-19T15:08:52;16.60;96.10
25360;DHT22;13311;51.386;0.016;2023-11-19T15:13:52;16.50;96.00
25360;DHT22;13311;51.386;0.016;2023-11-19T15:18:53;16.60;96.40
25360;DHT22;13311;51.386;0.016;2023-11-19T15:23:55;16.50;96.50
25360;DHT22;13311;51.386;0.016;2023-11-19T15:29:02;16.50;96.70
25360;DHT22;13311;51.386;0.016;2023-11-19T15:34:03;16.60;96.60
25360;DHT22;13311;51.386;0.016;2023-11-19T15:39:04;16.50;96.60
25360;DHT22;13311;51.386;0.016;2023-11-19T15:44:05;16.50;96.70
25360;DHT22;13311;51.386;0.016;2023-11-19T15:49:09;16.50;96.80
25360;DHT22;13311;51.386;0.016;2023-11-19T15:54:10;16.50;97.00
25360;DHT22;13311;51.386;0.016;2023-11-19T15:59:11;16.40;97.10
25360;DHT22;13311;51.386;0.016;2023-11-19T16:04:12;16.50;96.90
25360;DHT22;13311;51.386;0.016;2023-11-19T16:09:13;16.30;97.20
25360;DHT22;13311;51.386;0.016;2023-11-19T16:14:15;16.40;97.10
25360;DHT22;13311;51.386;0.016;2023-11-19T16:19:16;16.30;97.20
25360;DHT22;13311;51.386;0.016;2023-11-19T16:24:18;16.40;97.20
25360;DHT22;13311;51.386;0.016;2023-11-19T16:29:23;16.40;97.50
25360;DHT22;13311;51.386;0.016;2023-11-19T16:34:23;16.40;97.40
25360;DHT22;13311;51.386;0.016;2023-11-19T16:39:24;16.50;97.20
25360;DHT22;13311;51.386;0.016;2023-11-19T16:44:28;16.40;97.10
25360;DHT22;13311;51.386;0.016;2023-11-19T16:49:31;16.40;97.20
25360;DHT22;13311;51.386;0.016;2023-11-19T16:54:33;16.30;97.20
25360;DHT22;13311;51.386;0.016;2023-11-19T16:59:38;16.30;97.30
25360;DHT22;13311;51.386;0.016;2023-11-19T17:04:39;16.40;97.40
25360;DHT22;13311;51.386;0.016;2023-11-19T17:09:41;16.30;97.50
25360;DHT22;13311;51.386;0.016;2023-11-19T17:14:42;16.30;97.60
25360;DHT22;13311;51.386;0.016;2023-11-19T17:19:43;16.30;97.70
25360;DHT22;13311;51.386;0.016;2023-11-19T17:24:43;16.20;97.90
25360;DHT22;13311;51.386;0.016;2023-11-19T17:29:44;16.20;97.60
25360;DHT22;13311;51.386;0.016;2023-11-19T17:34:47;16.20;97.50
25360;DHT22;13311;51.386;0.016;2023-11-19T17:39:48;16.10;97.70
25360;DHT22;13311;51.386;0.016;2023-11-19T17:44:49;16.20;97.80
25360;DHT22;13311;51.386;0.016;2023-11-19T17:49:50;16.10;98.20
25360;DHT22;13311;51.386;0.016;2023-11-19T17:54:51;16.10;98.30
25360;DHT22;13311;51.386;0.016;2023-11-19T17:59:56;16.10;98.20
25360;DHT22;13311;51.386;0.016;2023-11-19T18:04:57;15.90;98.40
25360;DHT22;13311;51.386;0.016;2023-11-19T18:09:58;15.90;98.40
25360;DHT22;13311;51.386;0.016;2023-11-19T18:15:04;15.80;98.60
25360;DHT22;13311;51.386;0.016;2023-11-19T18:20:05;15.90;98.40
25360;DHT22;13311;51.386;0.016;2023-11-19T18:25:10;15.70;98.30
25360;DHT22;13311;51.386;0.016;2023-11-19T18:30:12;15.70;98.30
25360;DHT22;13311;51.386;0.016;2023-11-19T18:35:14;15.70;98.20
25360;DHT22;13311;51.386;0.016;2023-11-19T18:40:18;15.60;98.40
25360;DHT22;13311;51.386;0.016;2023-11-19T18:45:21;15.50;98.20
25360;DHT22;13311;51.386;0.016;2023-11-19T18:50:22;15.50;98.00
25360;DHT22;13311;51.386;0.016;2023-11-19T18:55:23;15.40;98.30
25360;DHT22;13311;51.386;0.016;2023-11-19T19:00:24;15.40;97.90
25360;DHT22;13311;51.386;0.016;2023-11-19T19:05:26;15.50;98.10
25360;DHT22;13311;51.386;0.016;2023-11-19T19:10:27;15.40;98.20
25360;DHT22;13311;51.386;0.016;2023-11-19T19:15:28;15.40;98.00
25360;DHT22;13311;51.386;0.016;2023-11-19T19:20:29;15.30;98.10
25360;DHT22;13311;51.386;0.016;2023-11-19T19:25:29;15.40;98.10
25360;DHT22;13311;51.386;0.016;2023-11-19T19:30:30;15.50;97.70
25360;DHT22;13311;51.386;0.016;2023-11-19T19:35:31;15.50;97.70
25360;DHT22;13311;51.386;0.016;2023-11-19T19:40:31;15.40;97.60
25360;DHT22;13311;51.386;0.016;2023-11-19T19:45:32;15.40;97.30
25360;DHT22;13311;51.386;0.016;2023-11-19T19:50:39;15.40;97.10
25360;DHT22;13311;51.386;0.016;2023-11-19T19:55:40;15.30;97.00
25360;DHT22;13311;51.386;0.016;2023-11-19T20:00:49;15.30;97.30
25360;DHT22;13311;51.386;0.016;2023-11-19T20:05:50;15.30;96.90
25360;DHT22;13311;51.386;0.016;2023-11-19T20:10:51;15.30;96.90
25360;DHT22;13311;51.386;0.016;2023-11-19T20:15:52;15.30;96.70
25360;DHT22;13311;51.386;0.016;2023-11-19T20:20:53;15.30;97.20
25360;DHT22;13311;51.386;0.016;2023-11-19T20:25:54;15.30;96.90
25360;DHT22;13311;51.386;0.016;2023-11-19T20:30:55;15.30;97.20
25360;DHT22;13311;51.386;0.016;2023-11-19T20:35:56;15.30;97.20
25360;DHT22;13311;51.386;0.016;2023-11-19T20:40:58;15.30;96.60
25360;DHT22;13311;51.386;0.016;2023-11-19T20:45:59;15.30;96.70
25360;DHT22;13311;51.386;0.016;2023-11-19T20:51:00;15.20;96.50
25360;DHT22;13311;51.386;0.016;2023-11-19T20:56:01;15.20;96.10
25360;DHT22;13311;51.386;0.016;2023-11-19T21:01:04;15.10;96.60
25360;DHT22;13311;51.386;0.016;2023-11-19T21:06:05;15.10;96.50
25360;DHT22;13311;51.386;0.016;2023-11-19T21:11:11;15.00;96.80
25360;DHT22;13311;51.386;0.016;2023-11-19T21:16:12;15.10;96.90
25360;DHT22;13311;51.386;0.016;2023-11-19T21:21:13;15.10;96.90
25360;DHT22;13311;51.386;0.016;2023-11-19T21:26:14;15.00;95.90
25360;DHT22;13311;51.386;0.016;2023-11-19T21:31:15;15.10;96.50
25360;DHT22;13311;51.386;0.016;2023-11-19T21:36:17;15.00;96.10
25360;DHT22;13311;51.386;0.016;2023-11-19T21:41:18;14.90;96.20
25360;DHT22;13311;51.386;0.016;2023-11-19T21:46:19;14.90;96.40
25360;DHT22;13311;51.386;0.016;2023-11-19T21:51:21;15.00;96.60
25360;DHT22;13311;51.386;0.016;2023-11-19T21:56:22;14.90;96.30
25360;DHT22;13311;51.386;0.016;2023-11-19T22:01:22;14.90;96.60
25360;DHT22;13311;51.386;0.016;2023-11-19T22:06:23;14.90;96.60
25360;DHT22;13311;51.386;0.016;2023-11-19T22:11:24;14.90;96.70
25360;DHT22;13311;51.386;0.016;2023-11-19T22:16:27;14.90;96.80
25360;DHT22;13311;51.386;0.016;2023-11-19T22:21:27;15.00;96.80
25360;DHT22;13311;51.386;0.016;2023-11-19T22:26:28;14.90;96.60
25360;DHT22;13311;51.386;0.016;2023-11-19T22:31:32;14.90;96.90
25360;DHT22;13311;51.386;0.016;2023-11-19T22:36:36;14.90;96.60
25360;DHT22;13311;51.386;0.016;2023-11-19T22:41:38;14.90;96.80
25360;DHT22;13311;51.386;0.016;2023-11-19T22:46:40;14.90;96.60
25360;DHT22;13311;51.386;0.016;2023-11-19T22:51:41;14.90;97.00
25360;DHT22;13311;51.386;0.016;2023-11-19T22:56:45;15.00;96.90
25360;DHT22;13311;51.386;0.016;2023-11-19T23:01:46;15.00;96.70
25360;DHT22;13311;51.386;0.016;2023-11-19T23:06:50;14.90;96.60
25360;DHT22;13311;51.386;0.016;2023-11-19T23:11:50;14.90;96.30
25360;DHT22;13311;51.386;0.016;2023-11-19T23:16:51;14.90;96.60
25360;DHT22;13311;51.386;0.016;2023-11-19T23:21:52;14.80;96.50
25360;DHT22;13311;51.386;0.016;2023-11-19T23:26:54;14.90;96.60
25360;DHT22;13311;51.386;0.016;2023-11-19T23:31:56;14.80;96.60
25360;DHT22;13311;51.386;0.016;2023-11-19T23:36:57;14.70;96.50
25360;DHT22;13311;51.386;0.016;2023-11-19T23:41:58;14.60;96.90
25360;DHT22;13311;51.386;0.016;2023-11-19T23:47:00;14.60;96.50
25360;DHT22;13311;51.386;0.016;2023-11-19T23:52:00;14.60;96.30
25360;DHT22;13311;51.386;0.016;2023-11-19T23:57:05;14.60;96.10
